createdAt,value
2019-06-15T09:57:21.872Z,11.83
2019-06-15T09:59:50.881Z,12.63
2019-06-15T10:02:20.152Z,12.70
2019-06-15T10:04:49.227Z,12.15
2019-06-15T10:07:18.667Z,11.68
2019-06-15T10:09:47.696Z,12.00
2019-06-15T10:12:16.800Z,11.48
2019-06-15T10:14:46.353Z,12.03
2019-06-15T10:17:15.416Z,10.78
2019-06-15T10:19:44.492Z,10.32
2019-06-15T10:22:13.709Z,10.78
2019-06-15T10:24:43.145Z,10.08
2019-06-15T10:27:12.044Z,9.68
2019-06-15T10:29:42.441Z,9.88
2019-06-15T10:32:12.415Z,10.23
2019-06-15T10:34:41.480Z,11.10
2019-06-15T10:37:10.552Z,11.68
2019-06-15T10:39:39.897Z,11.88
2019-06-15T10:42:09.006Z,11.63
2019-06-15T10:44:38.241Z,12.18
2019-06-15T10:47:07.390Z,12.85
2019-06-15T10:49:36.955Z,12.60
2019-06-15T10:52:05.970Z,12.55
2019-06-15T10:54:35.464Z,11.88
2019-06-15T10:57:04.850Z,11.33
2019-06-15T10:59:33.915Z,11.53
2019-06-15T11:02:03.490Z,12.13
2019-06-15T11:04:32.641Z,12.55
2019-06-15T11:07:01.840Z,12.58
2019-06-15T11:09:31.139Z,10.50
2019-06-15T11:12:00.157Z,9.43
2019-06-15T11:14:29.152Z,10.00
2019-06-15T11:16:59.693Z,11.40
2019-06-15T11:19:28.899Z,11.48
2019-06-15T11:21:58.041Z,12.18
2019-06-15T11:24:27.052Z,11.83
2019-06-15T11:26:56.117Z,11.65
2019-06-15T11:29:25.052Z,11.85
2019-06-15T11:31:54.121Z,11.75
2019-06-15T11:34:23.617Z,10.75
2019-06-15T11:36:52.641Z,11.70
2019-06-15T11:39:21.716Z,11.80
2019-06-15T11:41:50.766Z,11.88
2019-06-15T11:44:19.716Z,11.65
2019-06-15T11:46:50.263Z,11.88
2019-06-15T11:49:19.419Z,11.95
2019-06-15T11:51:48.432Z,12.88
2019-06-15T11:54:17.387Z,12.18
2019-06-15T11:56:46.378Z,13.13
2019-06-15T11:59:15.327Z,12.20
2019-06-15T12:01:44.523Z,12.98
2019-06-15T12:04:13.793Z,13.10
2019-06-15T12:06:42.763Z,13.40
2019-06-15T12:09:11.743Z,12.93
2019-06-15T12:11:41.506Z,13.15
2019-06-15T12:14:10.504Z,12.43
2019-06-15T12:16:44.356Z,12.53
2019-06-15T12:19:13.491Z,13.10
2019-06-15T12:21:42.812Z,14.18
2019-06-15T12:24:12.034Z,14.73
2019-06-15T12:26:41.567Z,13.95
2019-06-15T12:29:11.242Z,14.47
2019-06-15T12:31:40.437Z,13.58
2019-06-15T12:34:09.693Z,14.13
2019-06-15T12:36:38.756Z,14.43
2019-06-15T12:39:07.830Z,14.65
2019-06-15T12:41:37.043Z,14.47
2019-06-15T12:44:06.176Z,14.10
2019-06-15T12:46:35.633Z,14.18
2019-06-15T12:49:05.167Z,15.08
2019-06-15T12:51:34.158Z,15.78
2019-06-15T12:54:03.084Z,15.10
2019-06-15T12:56:32.090Z,8.63
2019-06-15T12:59:01.031Z,9.55
2019-06-15T13:01:29.943Z,14.03
2019-06-15T13:03:58.857Z,14.75
2019-06-15T13:06:27.818Z,14.78
2019-06-15T13:08:58.169Z,15.13
2019-06-15T13:11:27.182Z,13.40
2019-06-15T13:13:56.362Z,13.53
2019-06-15T13:16:38.612Z,14.70
2019-06-15T13:18:57.229Z,13.95
2019-06-15T13:21:26.351Z,12.78
2019-06-15T13:23:55.227Z,12.95
2019-06-15T13:26:24.280Z,11.95
2019-06-15T13:28:53.255Z,11.78
2019-06-15T13:31:22.239Z,12.82
2019-06-15T13:33:51.170Z,11.90
2019-06-15T13:36:20.165Z,11.50
2019-06-15T13:38:49.223Z,11.03
2019-06-15T13:41:18.351Z,10.28
2019-06-15T13:43:47.360Z,10.58
2019-06-15T13:46:16.270Z,10.58
2019-06-15T13:48:45.253Z,10.45
2019-06-15T13:51:14.312Z,10.40
2019-06-15T13:53:43.282Z,10.55
2019-06-15T13:56:12.927Z,9.63
2019-06-15T13:58:41.899Z,9.35
2019-06-15T14:01:10.838Z,8.65
2019-06-15T14:03:39.799Z,8.08
2019-06-15T14:06:08.924Z,10.28
2019-06-15T14:08:38.010Z,9.53
2019-06-15T14:11:06.880Z,9.50
2019-06-15T14:13:36.337Z,9.25
2019-06-15T14:16:05.382Z,9.03
2019-06-15T14:18:34.306Z,9.38
2019-06-15T14:21:03.284Z,9.05
2019-06-15T14:23:32.462Z,8.93
2019-06-15T14:26:01.536Z,8.93
2019-06-15T14:28:30.553Z,8.83
2019-06-15T14:30:59.464Z,8.55
2019-06-15T14:33:28.341Z,7.92
2019-06-15T14:35:57.326Z,10.15
2019-06-15T14:38:26.323Z,9.63
2019-06-15T14:40:55.196Z,9.28
2019-06-15T14:43:24.146Z,9.58
2019-06-15T14:45:59.411Z,8.28
2019-06-15T14:48:23.616Z,7.75
2019-06-15T14:50:52.512Z,7.83
2019-06-15T14:53:21.390Z,7.40
2019-06-15T14:55:50.378Z,8.23
2019-06-15T14:58:19.521Z,7.97
2019-06-15T15:00:48.457Z,9.18
2019-06-15T15:03:17.364Z,9.25
2019-06-15T15:05:46.329Z,8.28
2019-06-15T15:08:15.551Z,7.50
2019-06-15T15:10:44.426Z,8.03
2019-06-15T15:13:13.435Z,7.78
2019-06-15T15:15:42.348Z,8.18
2019-06-15T15:18:11.351Z,8.00
2019-06-15T15:20:40.458Z,7.83
2019-06-15T15:23:09.586Z,7.47
2019-06-15T15:25:38.586Z,7.58
2019-06-15T15:28:07.562Z,7.78
2019-06-15T15:30:43.636Z,7.40
2019-06-15T15:33:12.670Z,7.95
2019-06-15T15:35:41.582Z,11.50
2019-06-15T15:38:10.823Z,29.32
2019-06-15T15:40:40.916Z,16.97
2019-06-15T15:43:09.858Z,7.28
2019-06-15T15:45:38.763Z,9.05
2019-06-15T15:48:07.776Z,7.95
2019-06-15T15:50:37.173Z,7.83
2019-06-15T15:53:06.813Z,8.90
2019-06-15T15:55:35.822Z,7.72
2019-06-15T15:58:06.707Z,7.25
2019-06-15T16:00:35.903Z,6.97
2019-06-15T16:03:07.035Z,6.80
2019-06-15T16:05:37.241Z,6.85
2019-06-15T16:08:06.675Z,7.25
2019-06-15T16:10:37.371Z,7.22
2019-06-15T16:13:06.626Z,6.87
2019-06-15T16:15:37.325Z,6.85
2019-06-15T16:18:07.279Z,7.10
2019-06-15T16:20:36.975Z,6.40
2019-06-15T16:23:07.523Z,7.03
2019-06-15T16:25:37.540Z,6.90
2019-06-15T16:28:07.154Z,7.45
2019-06-15T16:31:00.625Z,7.12
2019-06-15T16:33:07.973Z,6.78
2019-06-15T16:35:37.355Z,6.80
2019-06-15T16:38:06.874Z,6.85
2019-06-15T16:40:40.260Z,6.95
2019-06-15T16:43:09.285Z,6.90
2019-06-15T16:45:38.448Z,6.75
2019-06-15T16:48:07.480Z,6.83
2019-06-15T16:50:37.035Z,7.17
2019-06-15T16:53:06.189Z,6.97
2019-06-15T16:55:36.797Z,7.08
2019-06-15T16:58:07.449Z,7.03
2019-06-15T17:00:36.867Z,7.45
2019-06-15T17:03:19.848Z,7.45
2019-06-15T17:05:37.423Z,7.75
2019-06-15T17:08:06.945Z,6.70
2019-06-15T17:10:41.611Z,7.20
2019-06-15T17:13:10.980Z,7.80
2019-06-15T17:15:40.030Z,7.58
2019-06-15T17:18:09.277Z,7.47
2019-06-15T17:20:47.316Z,7.20
2019-06-15T17:23:16.518Z,6.72
2019-06-15T17:25:46.267Z,7.72
2019-06-15T17:28:15.291Z,7.87
2019-06-15T17:30:45.377Z,7.12
2019-06-15T17:33:16.643Z,8.25
2019-06-15T17:35:56.218Z,7.90
2019-06-15T17:38:16.849Z,8.13
2019-06-15T17:40:46.255Z,8.18
2019-06-15T17:43:16.119Z,7.75
2019-06-15T17:45:46.791Z,7.90
2019-06-15T17:48:17.481Z,7.90
2019-06-15T17:50:47.911Z,7.85
2019-06-15T17:53:17.259Z,7.53
2019-06-15T17:55:46.925Z,7.78
2019-06-15T17:58:16.989Z,7.55
2019-06-15T18:00:48.049Z,7.67
2019-06-15T18:03:17.366Z,7.20
2019-06-15T18:05:47.998Z,7.00
2019-06-15T18:08:17.132Z,7.10
2019-06-15T18:10:47.562Z,7.62
2019-06-15T18:13:17.307Z,7.70
2019-06-15T18:15:47.531Z,7.80
2019-06-15T18:18:17.252Z,7.92
2019-06-15T18:20:46.657Z,7.87
2019-06-15T18:23:17.507Z,7.35
2019-06-15T18:25:46.799Z,8.10
2019-06-15T18:28:17.472Z,7.28
2019-06-15T18:30:47.567Z,8.55
2019-06-15T18:33:17.377Z,8.55
2019-06-15T18:35:47.568Z,7.67
2019-06-15T18:38:17.216Z,8.00
2019-06-15T18:40:46.120Z,8.95
2019-06-15T18:43:16.706Z,8.38
2019-06-15T18:45:47.298Z,8.18
2019-06-15T18:48:16.778Z,8.70
2019-06-15T18:50:46.056Z,8.35
2019-06-15T18:53:14.970Z,7.97
2019-06-15T18:55:43.860Z,8.95
2019-06-15T18:58:12.790Z,8.00
2019-06-15T19:00:41.713Z,8.08
2019-06-15T19:03:10.672Z,8.13
2019-06-15T19:05:39.607Z,8.08
2019-06-15T19:08:08.696Z,8.73
2019-06-15T19:10:38.220Z,8.80
2019-06-15T19:13:07.745Z,8.95
2019-06-15T19:15:37.663Z,8.70
2019-06-15T19:18:07.627Z,8.75
2019-06-15T19:20:37.495Z,8.77
2019-06-15T19:23:07.257Z,9.00
2019-06-15T19:25:36.659Z,8.70
2019-06-15T19:28:05.937Z,9.57
2019-06-15T19:30:37.361Z,8.93
2019-06-15T19:33:05.809Z,10.30
2019-06-15T19:35:36.354Z,10.10
2019-06-15T19:38:06.503Z,10.20
2019-06-15T19:40:37.830Z,10.00
2019-06-15T19:43:07.145Z,10.07
2019-06-15T19:45:37.107Z,9.70
2019-06-15T19:48:07.055Z,10.57
2019-06-15T19:50:36.333Z,9.67
2019-06-15T19:53:07.130Z,10.40
2019-06-15T19:55:36.418Z,9.93
2019-06-15T19:58:07.107Z,10.60
2019-06-15T20:00:37.165Z,8.93
2019-06-15T20:03:07.153Z,9.10
2019-06-15T20:05:37.233Z,9.07
2019-06-15T20:08:06.972Z,9.63
2019-06-15T20:10:37.235Z,9.60
2019-06-15T20:13:07.316Z,9.50
2019-06-15T20:15:37.991Z,10.07
2019-06-15T20:18:07.333Z,9.40
2019-06-15T20:20:37.210Z,9.73
2019-06-15T20:23:07.325Z,9.70
2019-06-15T20:25:37.095Z,9.70
2019-06-15T20:28:07.149Z,8.73
2019-06-15T20:30:37.145Z,9.47
2019-06-15T20:33:07.773Z,9.23
2019-06-15T20:35:37.395Z,9.30
2019-06-15T20:38:06.425Z,9.07
2019-06-15T20:40:36.444Z,9.87
2019-06-15T20:43:07.597Z,9.07
2019-06-15T20:45:37.211Z,10.17
2019-06-15T20:48:06.966Z,9.87
2019-06-15T20:50:36.496Z,9.87
2019-06-15T20:53:06.153Z,10.40
2019-06-15T20:55:37.271Z,10.43
2019-06-15T20:58:07.080Z,10.40
2019-06-15T21:00:37.098Z,11.80
2019-06-15T21:03:07.005Z,10.60
2019-06-15T21:05:41.640Z,10.60
2019-06-15T21:08:07.536Z,10.80
2019-06-15T21:10:37.421Z,10.27
2019-06-15T21:13:07.141Z,9.97
2019-06-15T21:15:39.079Z,10.13
2019-06-15T21:18:08.204Z,10.53
2019-06-15T21:20:37.163Z,10.37
2019-06-15T21:23:06.600Z,10.17
2019-06-15T21:25:35.893Z,9.87
2019-06-15T21:28:06.765Z,10.63
2019-06-15T21:30:36.840Z,10.90
2019-06-15T21:33:07.063Z,10.83
2019-06-15T21:35:48.584Z,11.07
2019-06-15T21:38:07.943Z,10.80
2019-06-15T21:40:37.010Z,10.73
2019-06-15T21:43:07.109Z,9.70
2019-06-15T21:45:37.015Z,9.43
2019-06-15T21:48:07.026Z,9.13
2019-06-15T21:50:36.459Z,9.63
2019-06-15T21:53:06.943Z,9.57
2019-06-15T21:55:36.715Z,9.47
2019-06-15T21:58:07.559Z,9.47
2019-06-15T22:00:51.492Z,9.03
2019-06-15T22:03:20.394Z,9.93
2019-06-15T22:06:02.129Z,10.40
2019-06-15T22:08:19.877Z,10.33
2019-06-15T22:10:48.873Z,9.70
2019-06-15T22:13:30.017Z,9.77
2019-06-15T22:15:58.964Z,9.40
2019-06-15T22:18:28.513Z,9.83
2019-06-15T22:20:58.532Z,9.43
2019-06-15T22:23:28.538Z,10.00
2019-06-15T22:25:57.564Z,10.13
2019-06-15T22:28:27.155Z,9.70
2019-06-15T22:30:57.136Z,9.40
2019-06-15T22:33:27.048Z,9.87
2019-06-15T22:35:56.588Z,9.73
2019-06-15T22:38:25.917Z,9.23
2019-06-15T22:40:56.416Z,9.37
2019-06-15T22:43:27.310Z,9.57
2019-06-15T22:45:57.046Z,8.90
2019-06-15T22:48:27.275Z,9.27
2019-06-15T22:50:56.709Z,9.43
2019-06-15T22:53:27.231Z,9.83
2019-06-15T22:55:57.038Z,9.83
2019-06-15T22:58:27.011Z,9.57
2019-06-15T23:00:56.866Z,9.97
2019-06-15T23:03:26.379Z,8.97
2019-06-15T23:05:57.159Z,9.30
2019-06-15T23:08:26.195Z,9.90
2019-06-15T23:10:57.193Z,9.40
2019-06-15T23:13:26.205Z,9.90
2019-06-15T23:15:56.362Z,9.37
2019-06-15T23:18:25.858Z,9.60
2019-06-15T23:20:56.933Z,9.80
2019-06-15T23:23:25.679Z,9.93
2019-06-15T23:25:56.604Z,10.07
2019-06-15T23:28:27.054Z,10.23
2019-06-15T23:30:56.611Z,9.70
2019-06-15T23:33:26.574Z,10.03
2019-06-15T23:35:57.725Z,10.03
2019-06-15T23:38:26.971Z,10.10
2019-06-15T23:40:56.250Z,10.63
2019-06-15T23:43:26.878Z,10.63
2019-06-15T23:45:56.495Z,9.90
2019-06-15T23:48:26.680Z,10.47
2019-06-15T23:50:56.912Z,10.20
2019-06-15T23:53:26.525Z,10.50
2019-06-15T23:55:56.927Z,10.60
2019-06-15T23:58:26.458Z,10.50
